Time;durP1;ratioP1;P1;durP2;ratioP2;P2;SDS_P1;SDS_P2;PMS_P1;PMS_P2;Temp;Humidity;BMP_temperature;BMP_pressure;BME280_temperature;BME280_humidity;BME280_pressure;Samples;Min_cycle;Max_cycle;Signal;HPM_P1;HPM_P2
2024/02/08 00:01:08;;;;;;;;;;;;;;;-155.54;100.00;57697.75;4974448;28;19972;-76
2024/02/08 00:03:33;;;;;;;;;;;;;;;-155.54;100.00;57697.75;4978532;28;19925;-76
2024/02/08 00:05:58;;;;;;;;;;;;;;;-155.54;100.00;57697.75;4982099;28;20322;-76
2024/02/08 00:08:24;;;;;;;;;;;;;;;-155.54;100.00;57697.75;4985074;28;19977;-76
2024/02/08 00:10:49;;;;;;;;;;;;;;;-155.54;100.00;57697.75;4991718;28;20314;-76
2024/02/08 00:13:14;;;;;;;;;;;;;;;-155.54;100.00;57697.75;4992003;28;19960;-76
2024/02/08 00:15:40;;;;;;;;;;;;;;;-155.54;100.00;57697.75;4999431;28;19929;-76
2024/02/08 00:18:07;;;;;;;;;;;;;;;-155.54;100.00;57697.75;4980732;28;19921;-76
2024/02/08 00:20:32;;;;;;;;;;;;;;;-155.54;100.00;57697.75;4981904;28;20319;-76
2024/02/08 00:22:58;;;;;;;;;;;;;;;-155.54;100.00;57697.75;4979661;28;19983;-76
2024/02/08 00:25:24;;;;;;;;;;;;;;;-155.54;100.00;57697.75;4969942;28;19925;-76
2024/02/08 00:27:49;;;;;;;;;;;;;;;-155.54;100.00;57697.75;4987516;28;19972;-76
2024/02/08 00:30:18;;;;;;;;;;;;;;;-155.54;100.00;57697.75;4998532;28;20197;-76
2024/02/08 00:32:48;;;;;;;;;;;;;;;-155.54;100.00;57697.75;4981094;28;20031;-76
2024/02/08 00:35:17;;;;;;;;;;;;;;;-155.54;100.00;57697.75;4999054;28;20022;-76
2024/02/08 00:37:42;;;;;;;;;;;;;;;-155.54;100.00;57697.75;4981560;28;20109;-76
2024/02/08 00:40:08;;;;;;;;;;;;;;;-155.54;100.00;57697.75;4991875;28;19949;-76
2024/02/08 00:42:33;;;;;;;;;;;;;;;-155.54;100.00;57697.75;4980220;28;19929;-76
2024/02/08 00:44:58;;;;;;;;;;;;;;;-155.54;100.00;57697.75;4997072;28;20043;-76
2024/02/08 00:47:24;;;;;;;;;;;;;;;-155.54;100.00;57697.75;4980842;28;20002;-76
2024/02/08 00:49:49;;;;;;;;;;;;;;;-155.54;100.00;57697.75;4980501;28;19922;-76
2024/02/08 00:55:18;;;;;;;;;;;;;;;-155.54;100.00;57697.75;4996942;28;19924;-76
2024/02/08 00:57:43;;;;;;;;;;;;;;;-155.54;100.00;57697.75;4964302;28;19925;-76
2024/02/08 01:00:08;;;;;;;;;;;;;;;-155.54;100.00;57697.75;4997069;28;20394;-76
2024/02/08 01:02:34;;;;;;;;;;;;;;;-155.54;100.00;57697.75;4981259;28;19925;-76
2024/02/08 01:04:59;;;;;;;;;;;;;;;-155.54;100.00;57697.75;4996962;28;20020;-76
2024/02/08 01:07:25;;;;;;;;;;;;;;;-155.54;100.00;57697.75;4998887;28;19932;-76
2024/02/08 01:09:50;;;;;;;;;;;;;;;-155.54;100.00;57697.75;4980540;28;20056;-76
2024/02/08 01:12:18;;;;;;;;;;;;;;;-155.54;100.00;57697.75;4979933;28;20020;-76
2024/02/08 01:14:44;;;;;;;;;;;;;;;-155.54;100.00;57697.75;4976903;28;20283;-76
2024/02/08 01:17:09;;;;;;;;;;;;;;;-155.54;100.00;57697.75;4980801;28;19925;-76
2024/02/08 01:19:34;;;;;;;;;;;;;;;-155.54;100.00;57697.75;4998513;28;19921;-76
2024/02/08 01:21:59;;;;;;;;;;;;;;;-155.54;100.00;57697.75;4995973;28;20187;-76
2024/02/08 01:24:24;;;;;;;;;;;;;;;-155.54;100.00;57697.75;4973896;28;19922;-76
2024/02/08 01:26:50;;;;;;;;;;;;;;;-155.54;100.00;57697.75;4970024;28;20073;-76
2024/02/08 01:29:15;;;;;;;;;;;;;;;-155.54;100.00;57697.75;4975604;28;19983;-76
2024/02/08 01:31:41;;;;;;;;;;;;;;;-155.54;100.00;57697.75;4981170;28;19949;-76
2024/02/08 01:34:07;;;;;;;;;;;;;;;-155.54;100.00;57697.75;4960972;28;20264;-76
2024/02/08 01:36:32;;;;;;;;;;;;;;;-155.54;100.00;57697.75;4996310;28;20180;-76
2024/02/08 01:38:58;;;;;;;;;;;;;;;-155.54;100.00;57697.75;4968313;28;20056;-76
2024/02/08 01:41:24;;;;;;;;;;;;;;;-155.54;100.00;57697.75;4954793;28;20351;-76
2024/02/08 01:43:49;;;;;;;;;;;;;;;-155.54;100.00;57697.75;4969218;28;19918;-76
2024/02/08 01:46:15;;;;;;;;;;;;;;;-155.54;100.00;57697.75;4979527;28;20197;-76
2024/02/08 01:48:44;;;;;;;;;;;;;;;-155.54;100.00;57697.75;4979365;28;19948;-76
2024/02/08 01:51:12;;;;;;;;;;;;;;;-155.54;100.00;57697.75;4980755;28;20188;-76
2024/02/08 01:53:39;;;;;;;;;;;;;;;-155.54;100.00;57697.75;4997445;28;19928;-76
2024/02/08 01:56:05;;;;;;;;;;;;;;;-155.54;100.00;57697.75;4967615;28;20271;-76
2024/02/08 01:58:30;;;;;;;;;;;;;;;-155.54;100.00;57697.75;4980511;28;19921;-76
2024/02/08 02:00:56;;;;;;;;;;;;;;;-155.54;100.00;57697.75;4991217;28;19930;-76
2024/02/08 02:03:23;;;;;;;;;;;;;;;-155.54;100.00;57697.75;4974746;28;19926;-76
2024/02/08 02:05:48;;;;;;;;;;;;;;;-155.54;100.00;57697.75;4997084;28;19925;-76
2024/02/08 02:08:17;;;;;;;;;;;;;;;-155.54;100.00;57697.75;4992819;28;20406;-76
2024/02/08 02:10:45;;;;;;;;;;;;;;;-155.54;100.00;57697.75;4998142;28;20015;-76
2024/02/08 02:13:11;;;;;;;;;;;;;;;-155.54;100.00;57697.75;4993444;28;19921;-76
2024/02/08 02:15:37;;;;;;;;;;;;;;;-155.54;100.00;57697.75;4998518;28;19928;-76
2024/02/08 02:18:03;;;;;;;;;;;;;;;-155.54;100.00;57697.75;5016781;28;19960;-76
2024/02/08 02:20:29;;;;;;;;;;;;;;;-155.54;100.00;57697.75;5006473;28;19932;-76
2024/02/08 02:23:01;;;;;;;;;;;;;;;-155.54;100.00;57697.75;4992604;28;19943;-76
2024/02/08 02:25:27;;;;;;;;;;;;;;;-155.54;100.00;57697.75;5004195;28;19925;-78
2024/02/08 02:27:58;;;;;;;;;;;;;;;-155.54;100.00;57697.75;5027236;28;19928;-76
2024/02/08 02:30:23;;;;;;;;;;;;;;;-155.54;100.00;57697.75;5002971;28;19925;-76
2024/02/08 02:32:52;;;;;;;;;;;;;;;-155.54;100.00;57697.75;5007129;28;19921;-76
2024/02/08 02:35:17;;;;;;;;;;;;;;;-155.54;100.00;57697.75;5006611;28;19921;-76
2024/02/08 02:37:44;;;;;;;;;;;;;;;-155.54;100.00;57697.75;5026822;28;19921;-76
2024/02/08 02:40:09;;;;;;;;;;;;;;;-155.54;100.00;57697.75;4986544;28;20113;-76
2024/02/08 02:42:35;;;;;;;;;;;;;;;-155.54;100.00;57697.75;5007037;28;19952;-76
2024/02/08 02:45:01;;;;;;;;;;;;;;;-155.54;100.00;57697.75;5010672;28;19960;-78
2024/02/08 02:47:26;;;;;;;;;;;;;;;-155.54;100.00;57697.75;5032119;28;19932;-76
2024/02/08 02:49:55;;;;;;;;;;;;;;;-155.54;100.00;57697.75;5029651;28;19928;-75
2024/02/08 02:52:21;;;;;;;;;;;;;;;-155.54;100.00;57697.75;5022501;28;19924;-75
2024/02/08 02:54:47;;;;;;;;;;;;;;;-155.54;100.00;57697.75;5022621;28;19924;-76
2024/02/08 02:57:14;;;;;;;;;;;;;;;-155.54;100.00;57697.75;5021989;28;19924;-75
2024/02/08 02:59:42;;;;;;;;;;;;;;;-155.54;100.00;57697.75;5021598;28;19943;-75
2024/02/08 03:02:08;;;;;;;;;;;;;;;-155.54;100.00;57697.75;5025428;28;19948;-75
2024/02/08 03:29:42;;;;;;;;;;;;;;;-155.54;100.00;57697.75;5898846;23;20194;-76
2024/02/08 03:32:07;;;;;;;;;;;;;;;-155.54;100.00;57697.75;4974385;28;20012;-76
2024/02/08 03:34:35;;;;;;;;;;;;;;;-155.54;100.00;57697.75;4988172;28;20335;-76
2024/02/08 03:37:02;;;;;;;;;;;;;;;-155.54;100.00;57697.75;4975510;28;19921;-76
2024/02/08 03:39:28;;;;;;;;;;;;;;;-155.54;100.00;57697.75;4992137;28;19923;-76
2024/02/08 03:41:53;;;;;;;;;;;;;;;-155.54;100.00;57697.75;4993257;28;19925;-76
2024/02/08 03:44:21;;;;;;;;;;;;;;;-155.54;100.00;57697.75;4977640;28;20343;-76
2024/02/08 03:46:47;;;;;;;;;;;;;;;-155.54;100.00;57697.75;4993740;28;19913;-76
2024/02/08 03:49:14;;;;;;;;;;;;;;;-155.54;100.00;57697.75;4978619;28;20409;-76
2024/02/08 03:51:39;;;;;;;;;;;;;;;-155.54;100.00;57697.75;5009235;28;19929;-76
2024/02/08 03:54:08;;;;;;;;;;;;;;;-155.54;100.00;57697.75;5012084;28;19988;-76
2024/02/08 03:56:36;;;;;;;;;;;;;;;-155.54;100.00;57697.75;4990819;28;20298;-76
2024/02/08 03:59:07;;;;;;;;;;;;;;;-155.54;100.00;57697.75;4993576;28;20363;-76
2024/02/08 04:01:32;;;;;;;;;;;;;;;-155.54;100.00;57697.75;4985795;28;19929;-76
2024/02/08 04:04:11;;;;;;;;;;;;;;;-155.54;100.00;57697.75;5003019;28;19943;-76
2024/02/08 04:06:37;;;;;;;;;;;;;;;-155.54;100.00;57697.75;4989613;28;19928;-76
2024/02/08 04:09:16;;;;;;;;;;;;;;;-155.54;100.00;57697.75;4995343;28;19936;-76
2024/02/08 04:55:24;;;;;;;;;;;;;;;-155.54;100.00;57697.75;5019483;28;20364;-75
2024/02/08 04:57:49;;;;;;;;;;;;;;;-155.54;100.00;57697.75;5019001;28;19921;-76
2024/02/08 05:00:14;;;;;;;;;;;;;;;-155.54;100.00;57697.75;5019062;28;20028;-76
2024/02/08 05:02:40;;;;;;;;;;;;;;;-155.54;100.00;57697.75;4984365;28;19921;-76
2024/02/08 05:05:07;;;;;;;;;;;;;;;-155.54;100.00;57697.75;5018425;28;19929;-75
2024/02/08 05:07:32;;;;;;;;;;;;;;;-155.54;100.00;57697.75;5018388;28;19921;-76
2024/02/08 05:09:58;;;;;;;;;;;;;;;-155.54;100.00;57697.75;5006301;28;19925;-76
2024/02/08 05:12:24;;;;;;;;;;;;;;;-155.54;100.00;57697.75;5009164;28;20004;-76
2024/02/08 05:14:49;;;;;;;;;;;;;;;-155.54;100.00;57697.75;4999240;28;20398;-76
2024/02/08 05:17:14;;;;;;;;;;;;;;;-155.54;100.00;57697.75;4983287;28;20534;-71
2024/02/08 05:19:43;;;;;;;;;;;;;;;-155.54;100.00;57697.75;5011337;28;20129;-72
2024/02/08 05:22:11;;;;;;;;;;;;;;;-155.54;100.00;57697.75;5014101;28;20020;-72
2024/02/08 05:24:36;;;;;;;;;;;;;;;-155.54;100.00;57697.75;5008362;28;20052;-72
2024/02/08 05:27:02;;;;;;;;;;;;;;;-155.54;100.00;57697.75;5004890;28;19929;-72
2024/02/08 05:29:28;;;;;;;;;;;;;;;-155.54;100.00;57697.75;5013824;28;20056;-72
2024/02/08 05:31:53;;;;;;;;;;;;;;;-155.54;100.00;57697.75;5008906;28;20609;-72
2024/02/08 05:34:21;;;;;;;;;;;;;;;-155.54;100.00;57697.75;5006961;28;20253;-72
2024/02/08 05:36:48;;;;;;;;;;;;;;;-155.54;100.00;57697.75;5013162;28;20018;-71
2024/02/08 05:39:23;;;;;;;;;;;;;;;-155.54;100.00;57697.75;5012812;28;19925;-71
2024/02/08 05:41:49;;;;;;;;;;;;;;;-155.54;100.00;57697.75;4994096;28;19937;-72
2024/02/08 05:44:14;;;;;;;;;;;;;;;-155.54;100.00;57697.75;5008963;28;19925;-72
2024/02/08 05:46:39;;;;;;;;;;;;;;;-155.54;100.00;57697.75;5009391;28;20279;-72
2024/02/08 05:49:05;;;;;;;;;;;;;;;-155.54;100.00;57697.75;5009182;28;20024;-72
2024/02/08 05:51:33;;;;;;;;;;;;;;;-155.54;100.00;57697.75;5008709;28;20328;-72
2024/02/08 05:54:01;;;;;;;;;;;;;;;-155.54;100.00;57697.75;5011637;28;20464;-72
2024/02/08 05:56:30;;;;;;;;;;;;;;;-155.54;100.00;57697.75;5016725;28;19917;-72
2024/02/08 05:59:01;;;;;;;;;;;;;;;-155.54;100.00;57697.75;5017752;28;19983;-72
2024/02/08 06:01:26;;;;;;;;;;;;;;;-155.54;100.00;57697.75;5013305;28;20286;-72
2024/02/08 06:03:56;;;;;;;;;;;;;;;-155.54;100.00;57697.75;4997323;28;19941;-72
2024/02/08 06:06:33;;;;;;;;;;;;;;;-155.54;100.00;57697.75;5011821;28;19921;-72
2024/02/08 06:09:08;;;;;;;;;;;;;;;-155.54;100.00;57697.75;4998424;28;19923;-72
2024/02/08 06:11:37;;;;;;;;;;;;;;;-155.54;100.00;57697.75;5005315;28;20009;-72
2024/02/08 06:14:12;;;;;;;;;;;;;;;-155.54;100.00;57697.75;5012040;28;20447;-71
2024/02/08 06:16:57;;;;;;;;;;;;;;;-155.54;100.00;57697.75;5009144;28;19925;-72
2024/02/08 06:19:22;;;;;;;;;;;;;;;-155.54;100.00;57697.75;5014760;28;20444;-72
2024/02/08 06:21:48;;;;;;;;;;;;;;;-155.54;100.00;57697.75;5007857;28;19925;-72
2024/02/08 06:26:55;;;;;;;;;;;;;;;-155.54;100.00;57697.75;5007464;28;20433;-72
2024/02/08 06:29:25;;;;;;;;;;;;;;;-155.54;100.00;57697.75;5007953;28;19926;-72
2024/02/08 06:32:00;;;;;;;;;;;;;;;-155.54;100.00;57697.75;4994141;28;20569;-72
2024/02/08 06:34:42;;;;;;;;;;;;;;;-155.54;100.00;57697.75;5008455;28;19953;-72
2024/02/08 06:37:26;;;;;;;;;;;;;;;-155.54;100.00;57697.75;5008541;28;20015;-72
2024/02/08 06:39:55;;;;;;;;;;;;;;;-155.54;100.00;57697.75;5007371;28;19925;-72
2024/02/08 06:47:56;;;;;;;;;;;;;;;-155.54;100.00;57697.75;5000908;28;19991;-72
2024/02/08 07:39:30;;;;;;;;;;;;;;;-155.54;100.00;57697.75;5007868;28;20638;-72
2024/02/08 07:41:55;;;;;;;;;;;;;;;-155.54;100.00;57697.75;5006023;28;19934;-72
2024/02/08 07:44:22;;;;;;;;;;;;;;;-155.54;100.00;57697.75;5005723;28;19928;-72
2024/02/08 07:46:54;;;;;;;;;;;;;;;-155.54;100.00;57697.75;4993050;28;20522;-72
2024/02/08 07:49:19;;;;;;;;;;;;;;;-155.54;100.00;57697.75;5010275;28;20539;-72
2024/02/08 07:51:50;;;;;;;;;;;;;;;-155.54;100.00;57697.75;5009545;28;20209;-72
2024/02/08 07:54:20;;;;;;;;;;;;;;;-155.54;100.00;57697.75;5006473;28;20253;-72
2024/02/08 07:56:49;;;;;;;;;;;;;;;-155.54;100.00;57697.75;5009476;28;20122;-72
2024/02/08 07:59:26;;;;;;;;;;;;;;;-155.54;100.00;57697.75;4993291;28;19925;-72
2024/02/08 08:01:53;;;;;;;;;;;;;;;-155.54;100.00;57697.75;5007557;28;19929;-72
2024/02/08 08:07:03;;;;;;;;;;;;;;;-155.54;100.00;57697.75;5010057;28;20345;-72
2024/02/08 08:09:28;;;;;;;;;;;;;;;-155.54;100.00;57697.75;5009697;28;19925;-72
2024/02/08 08:11:55;;;;;;;;;;;;;;;-155.54;100.00;57697.75;5007355;28;19971;-72
2024/02/08 08:19:38;;;;;;;;;;;;;;;-155.54;100.00;57697.75;5008476;28;20129;-72
2024/02/08 08:22:04;;;;;;;;;;;;;;;-155.54;100.00;57697.75;4998268;28;19933;-72
2024/02/08 08:24:29;;;;;;;;;;;;;;;-155.54;100.00;57697.75;5018197;28;20078;-72
2024/02/08 08:27:06;;;;;;;;;;;;;;;-155.54;100.00;57697.75;5013020;28;19967;-72
2024/02/08 08:29:43;;;;;;;;;;;;;;;-155.54;100.00;57697.75;5004190;28;20322;-72
2024/02/08 08:33:06;;;;;;;;;;;;;;;-155.54;100.00;57697.75;5018565;28;19968;-72
2024/02/08 08:37:44;;;;;;;;;;;;;;;-155.54;100.00;57697.75;5014833;28;19932;-72
2024/02/08 08:42:57;;;;;;;;;;;;;;;-155.54;100.00;57697.75;5011394;28;20075;-72
2024/02/08 08:45:23;;;;;;;;;;;;;;;-155.54;100.00;57697.75;5018204;28;19929;-72
2024/02/08 08:47:51;;;;;;;;;;;;;;;-155.54;100.00;57697.75;5013605;28;20275;-72
2024/02/08 08:50:20;;;;;;;;;;;;;;;-155.54;100.00;57697.75;5013308;28;20470;-72
2024/02/08 08:52:49;;;;;;;;;;;;;;;-155.54;100.00;57697.75;5016475;28;20026;-72
2024/02/08 08:55:18;;;;;;;;;;;;;;;-155.54;100.00;57697.75;5013894;28;20409;-72
2024/02/08 08:57:47;;;;;;;;;;;;;;;-155.54;100.00;57697.75;5015919;28;19929;-72
2024/02/08 09:00:19;;;;;;;;;;;;;;;-155.54;100.00;57697.75;5011016;28;19933;-73
2024/02/08 09:02:47;;;;;;;;;;;;;;;-155.54;100.00;57697.75;5011751;28;20446;-72
2024/02/08 09:05:21;;;;;;;;;;;;;;;-155.54;100.00;57697.75;5011143;28;20183;-72
2024/02/08 09:07:46;;;;;;;;;;;;;;;-155.54;100.00;57697.75;5011186;28;20015;-72
2024/02/08 09:10:14;;;;;;;;;;;;;;;-155.54;100.00;57697.75;5015038;28;20012;-72
2024/02/08 09:12:39;;;;;;;;;;;;;;;-155.54;100.00;57697.75;4998961;28;20381;-72
2024/02/08 09:15:26;;;;;;;;;;;;;;;-155.54;100.00;57697.75;5018447;28;20036;-72
2024/02/08 09:17:57;;;;;;;;;;;;;;;-155.54;100.00;57697.75;5014793;28;19925;-73
2024/02/08 09:20:26;;;;;;;;;;;;;;;-155.54;100.00;57697.75;5006500;28;20422;-73
2024/02/08 09:22:52;;;;;;;;;;;;;;;-155.54;100.00;57697.75;5001474;28;20293;-73
2024/02/08 09:25:17;;;;;;;;;;;;;;;-155.54;100.00;57697.75;5011690;28;19929;-73
2024/02/08 09:27:47;;;;;;;;;;;;;;;-155.54;100.00;57697.75;5016513;28;19932;-72
2024/02/08 09:30:13;;;;;;;;;;;;;;;-155.54;100.00;57697.75;5015843;28;19952;-73
2024/02/08 09:32:44;;;;;;;;;;;;;;;-155.54;100.00;57697.75;5009310;28;20418;-73
2024/02/08 09:35:12;;;;;;;;;;;;;;;-155.54;100.00;57697.75;5017005;28;19921;-73
2024/02/08 09:37:47;;;;;;;;;;;;;;;-155.54;100.00;57697.75;5013839;28;20657;-72
2024/02/08 09:40:42;;;;;;;;;;;;;;;-155.54;100.00;57697.75;5009279;28;19961;-73
2024/02/08 09:43:16;;;;;;;;;;;;;;;-155.54;100.00;57697.75;5013177;28;19921;-73
2024/02/08 09:45:42;;;;;;;;;;;;;;;-155.54;100.00;57697.75;4999832;28;19924;-73
2024/02/08 09:48:25;;;;;;;;;;;;;;;-155.54;100.00;57697.75;4999398;28;19923;-73
2024/02/08 09:50:50;;;;;;;;;;;;;;;-155.54;100.00;57697.75;5006091;28;19928;-72
2024/02/08 09:53:19;;;;;;;;;;;;;;;-155.54;100.00;57697.75;5008629;28;19925;-73
2024/02/08 09:55:47;;;;;;;;;;;;;;;-155.54;100.00;57697.75;4998627;28;19917;-73
2024/02/08 09:58:13;;;;;;;;;;;;;;;-155.54;100.00;57697.75;4987602;28;20324;-73
2024/02/08 10:00:57;;;;;;;;;;;;;;;-155.54;100.00;57697.75;4995899;28;19941;-73
2024/02/08 10:03:33;;;;;;;;;;;;;;;-155.54;100.00;57697.75;4999150;28;19928;-73
2024/02/08 10:06:22;;;;;;;;;;;;;;;-155.54;100.00;57697.75;4994875;28;19933;-73
2024/02/08 10:08:51;;;;;;;;;;;;;;;-155.54;100.00;57697.75;4990988;28;19932;-73
2024/02/08 10:11:23;;;;;;;;;;;;;;;-155.54;100.00;57697.75;5010352;28;19936;-73
2024/02/08 10:14:23;;;;;;;;;;;;;;;-155.54;100.00;57697.75;5011335;28;20404;-73
2024/02/08 10:16:50;;;;;;;;;;;;;;;-155.54;100.00;57697.75;5007543;28;20658;-72
2024/02/08 10:19:28;;;;;;;;;;;;;;;-155.54;100.00;57697.75;5005798;28;20209;-72
2024/02/08 10:22:17;;;;;;;;;;;;;;;-155.54;100.00;57697.75;5009270;28;20023;-73
2024/02/08 10:27:20;;;;;;;;;;;;;;;-155.54;100.00;57697.75;5012484;28;19921;-73
2024/02/08 10:29:46;;;;;;;;;;;;;;;-155.54;100.00;57697.75;5006164;28;20104;-73
2024/02/08 10:32:14;;;;;;;;;;;;;;;-155.54;100.00;57697.75;5013405;28;19925;-72
2024/02/08 10:34:43;;;;;;;;;;;;;;;-155.54;100.00;57697.75;5000587;28;20003;-73
2024/02/08 10:39:59;;;;;;;;;;;;;;;-155.54;100.00;57697.75;5005375;28;19931;-73
2024/02/08 10:42:29;;;;;;;;;;;;;;;-155.54;100.00;57697.75;5016565;28;20326;-73
2024/02/08 10:45:05;;;;;;;;;;;;;;;-155.54;100.00;57697.75;5008660;28;19929;-72
2024/02/08 10:47:39;;;;;;;;;;;;;;;-155.54;100.00;57697.75;5016506;28;19956;-73
2024/02/08 10:50:19;;;;;;;;;;;;;;;-155.54;100.00;57697.75;5015964;28;19925;-72
2024/02/08 10:52:48;;;;;;;;;;;;;;;-155.54;100.00;57697.75;5016378;28;19971;-73
2024/02/08 10:55:18;;;;;;;;;;;;;;;-155.54;100.00;57697.75;5012362;28;20023;-72
2024/02/08 10:58:21;;;;;;;;;;;;;;;-155.54;100.00;57697.75;4998201;28;19936;-72
2024/02/08 11:03:33;;;;;;;;;;;;;;;-155.54;100.00;57697.75;5016744;28;19917;-73
2024/02/08 11:08:32;;;;;;;;;;;;;;;-155.54;100.00;57697.75;5015365;28;20479;-73
2024/02/08 11:10:58;;;;;;;;;;;;;;;-155.54;100.00;57697.75;5009886;28;19918;-72
2024/02/08 11:13:29;;;;;;;;;;;;;;;-155.54;100.00;57697.75;5015523;28;19925;-72
2024/02/08 11:15:56;;;;;;;;;;;;;;;-155.54;100.00;57697.75;5016148;28;19921;-73
2024/02/08 11:18:33;;;;;;;;;;;;;;;-155.54;100.00;57697.75;5015674;28;20444;-72
2024/02/08 11:21:03;;;;;;;;;;;;;;;-155.54;100.00;57697.75;4999083;28;20318;-72
2024/02/08 11:23:31;;;;;;;;;;;;;;;-155.54;100.00;57697.75;4991583;28;19921;-72
2024/02/08 11:25:56;;;;;;;;;;;;;;;-155.54;100.00;57697.75;5005754;28;19954;-72
2024/02/08 11:28:27;;;;;;;;;;;;;;;-155.54;100.00;57697.75;5011268;28;19925;-72
2024/02/08 11:30:53;;;;;;;;;;;;;;;-155.54;100.00;57697.75;5006667;28;19925;-72
2024/02/08 11:33:28;;;;;;;;;;;;;;;-155.54;100.00;57697.75;5008464;28;19932;-72
2024/02/08 11:36:11;;;;;;;;;;;;;;;-155.54;100.00;57697.75;5012200;28;19933;-72
2024/02/08 11:38:38;;;;;;;;;;;;;;;-155.54;100.00;57697.75;4971642;28;19921;-72
2024/02/08 11:41:12;;;;;;;;;;;;;;;-155.54;100.00;57697.75;5013502;28;20412;-72
2024/02/08 11:43:46;;;;;;;;;;;;;;;-155.54;100.00;57697.75;5012753;28;20378;-72
2024/02/08 11:46:22;;;;;;;;;;;;;;;-155.54;100.00;57697.75;5015914;28;20326;-72
2024/02/08 11:48:47;;;;;;;;;;;;;;;-155.54;100.00;57697.75;5000523;28;19925;-72
2024/02/08 11:51:16;;;;;;;;;;;;;;;-155.54;100.00;57697.75;5019039;28;19932;-72
2024/02/08 11:53:44;;;;;;;;;;;;;;;-155.54;100.00;57697.75;5019178;28;19921;-72
2024/02/08 11:56:09;;;;;;;;;;;;;;;-155.54;100.00;57697.75;5019732;28;20265;-72
2024/02/08 11:58:46;;;;;;;;;;;;;;;-155.54;100.00;57697.75;5019479;28;20443;-72
2024/02/08 12:01:15;;;;;;;;;;;;;;;-155.54;100.00;57697.75;5014206;28;19929;-72
2024/02/08 12:03:43;;;;;;;;;;;;;;;-155.54;100.00;57697.75;5002534;28;20664;-72
2024/02/08 12:06:17;;;;;;;;;;;;;;;-155.54;100.00;57697.75;5008841;28;19925;-72
2024/02/08 12:08:55;;;;;;;;;;;;;;;-155.54;100.00;57697.75;5015653;28;20297;-72
2024/02/08 12:11:22;;;;;;;;;;;;;;;-155.54;100.00;57697.75;5008817;28;19931;-72
2024/02/08 12:13:47;;;;;;;;;;;;;;;-155.54;100.00;57697.75;5018879;28;20106;-72
2024/02/08 12:16:13;;;;;;;;;;;;;;;-155.54;100.00;57697.75;5009853;28;20185;-72
2024/02/08 12:18:39;;;;;;;;;;;;;;;-155.54;100.00;57697.75;5008602;28;19944;-72
2024/02/08 12:21:08;;;;;;;;;;;;;;;-155.54;100.00;57697.75;5016748;28;20417;-72
2024/02/08 12:23:35;;;;;;;;;;;;;;;-155.54;100.00;57697.75;5011041;28;19932;-71
2024/02/08 12:26:04;;;;;;;;;;;;;;;-155.54;100.00;57697.75;5007034;28;20028;-72
2024/02/08 12:28:30;;;;;;;;;;;;;;;-155.54;100.00;57697.75;4993394;28;19937;-72
2024/02/08 12:30:59;;;;;;;;;;;;;;;-155.54;100.00;57697.75;4991121;28;20065;-72
2024/02/08 12:33:26;;;;;;;;;;;;;;;-155.54;100.00;57697.75;5009769;28;20032;-72
2024/02/08 12:35:51;;;;;;;;;;;;;;;-155.54;100.00;57697.75;5002776;28;19926;-72
2024/02/08 12:38:21;;;;;;;;;;;;;;;-155.54;100.00;57697.75;4997966;28;20424;-71
2024/02/08 12:40:47;;;;;;;;;;;;;;;-155.54;100.00;57697.75;4993073;28;20022;-71
2024/02/08 12:43:13;;;;;;;;;;;;;;;-155.54;100.00;57697.75;4997819;28;19922;-71
2024/02/08 12:45:38;;;;;;;;;;;;;;;-155.54;100.00;57697.75;5006424;28;19972;-72
2024/02/08 12:48:04;;;;;;;;;;;;;;;-155.54;100.00;57697.75;4996448;28;19996;-72
2024/02/08 12:50:34;;;;;;;;;;;;;;;-155.54;100.00;57697.75;5010638;28;19940;-71
2024/02/08 12:53:00;;;;;;;;;;;;;;;-155.54;100.00;57697.75;5008988;28;19929;-71
2024/02/08 12:55:31;;;;;;;;;;;;;;;-155.54;100.00;57697.75;5010057;28;20427;-72
2024/02/08 12:58:03;;;;;;;;;;;;;;;-155.54;100.00;57697.75;5012779;28;19944;-72
2024/02/08 13:00:33;;;;;;;;;;;;;;;-155.54;100.00;57697.75;5001419;28;19979;-76
2024/02/08 13:03:05;;;;;;;;;;;;;;;-155.54;100.00;57697.75;5011536;28;20020;-77
2024/02/08 13:05:39;;;;;;;;;;;;;;;-155.54;100.00;57697.75;5014906;28;20371;-76
2024/02/08 13:08:07;;;;;;;;;;;;;;;-155.54;100.00;57697.75;5020399;28;20013;-77
2024/02/08 13:10:33;;;;;;;;;;;;;;;-155.54;100.00;57697.75;5010537;28;19925;-77
2024/02/08 13:12:59;;;;;;;;;;;;;;;-155.54;100.00;57697.75;5009261;28;19925;-76
2024/02/08 13:15:24;;;;;;;;;;;;;;;-155.54;100.00;57697.75;4998923;28;19932;-79
2024/02/08 13:17:50;;;;;;;;;;;;;;;-155.54;100.00;57697.75;5011166;28;20000;-78
2024/02/08 13:20:16;;;;;;;;;;;;;;;-155.54;100.00;57697.75;4999236;28;20124;-76
2024/02/08 13:22:44;;;;;;;;;;;;;;;-155.54;100.00;57697.75;5019877;28;19921;-76
2024/02/08 13:25:13;;;;;;;;;;;;;;;-155.54;100.00;57697.75;5016947;28;19925;-76
2024/02/08 13:27:39;;;;;;;;;;;;;;;-155.54;100.00;57697.75;5003624;28;20385;-77
2024/02/08 13:30:14;;;;;;;;;;;;;;;-155.54;100.00;57697.75;4993933;28;19929;-77
2024/02/08 13:32:40;;;;;;;;;;;;;;;-155.54;100.00;57697.75;5025550;28;20788;-76
2024/02/08 13:35:05;;;;;;;;;;;;;;;-155.54;100.00;57697.75;5016542;28;19926;-77
2024/02/08 13:37:31;;;;;;;;;;;;;;;-155.54;100.00;57697.75;5020549;28;19952;-78
2024/02/08 13:39:59;;;;;;;;;;;;;;;-155.54;100.00;57697.75;5028888;28;19932;-79
2024/02/08 13:42:29;;;;;;;;;;;;;;;-155.54;100.00;57697.75;5039867;28;19940;-75
2024/02/08 13:44:57;;;;;;;;;;;;;;;-155.54;100.00;57697.75;5006674;28;20156;-78
2024/02/08 13:47:25;;;;;;;;;;;;;;;-155.54;100.00;57697.75;5012809;28;20334;-75
2024/02/08 13:49:53;;;;;;;;;;;;;;;-155.54;100.00;57697.75;5009332;28;20546;-78
2024/02/08 13:52:18;;;;;;;;;;;;;;;-155.54;100.00;57697.75;5014884;28;19929;-78
2024/02/08 13:54:45;;;;;;;;;;;;;;;-155.54;100.00;57697.75;5017083;28;20412;-77
2024/02/08 13:57:14;;;;;;;;;;;;;;;-155.54;100.00;57697.75;5019986;28;20014;-78
2024/02/08 13:59:45;;;;;;;;;;;;;;;-155.54;100.00;57697.75;5008065;28;20531;-76
2024/02/08 14:02:13;;;;;;;;;;;;;;;-155.54;100.00;57697.75;5029970;28;19925;-77
2024/02/08 14:04:39;;;;;;;;;;;;;;;-155.54;100.00;57697.75;5024078;28;19948;-78
2024/02/08 14:07:04;;;;;;;;;;;;;;;-155.54;100.00;57697.75;5010421;28;20397;-79
2024/02/08 14:09:33;;;;;;;;;;;;;;;-155.54;100.00;57697.75;5018607;28;19925;-75
2024/02/08 14:11:59;;;;;;;;;;;;;;;-155.54;100.00;57697.75;5012662;28;19921;-77
2024/02/08 14:14:40;;;;;;;;;;;;;;;-155.54;100.00;57697.75;5026520;28;19955;-76
2024/02/08 14:17:10;;;;;;;;;;;;;;;-155.54;100.00;57697.75;5010878;28;19968;-77
2024/02/08 14:19:36;;;;;;;;;;;;;;;-155.54;100.00;57697.75;5013408;28;20624;-76
2024/02/08 14:22:07;;;;;;;;;;;;;;;-155.54;100.00;57697.75;5011495;28;19925;-78
2024/02/08 14:24:39;;;;;;;;;;;;;;;-155.54;100.00;57697.75;5006086;28;19954;-78
2024/02/08 14:27:09;;;;;;;;;;;;;;;-155.54;100.00;57697.75;4994725;28;19922;-78
2024/02/08 14:29:37;;;;;;;;;;;;;;;-155.54;100.00;57697.75;4995006;28;19936;-78
2024/02/08 14:32:08;;;;;;;;;;;;;;;-155.54;100.00;57697.75;5000591;28;19921;-79
2024/02/08 14:34:36;;;;;;;;;;;;;;;-155.54;100.00;57697.75;4989055;28;19976;-77
2024/02/08 14:37:05;;;;;;;;;;;;;;;-155.54;100.00;57697.75;4994951;28;20200;-78
2024/02/08 14:39:34;;;;;;;;;;;;;;;-155.54;100.00;57697.75;4997522;28;20421;-81
2024/02/08 14:41:59;;;;;;;;;;;;;;;-155.54;100.00;57697.75;5015848;28;20016;-78
2024/02/08 14:44:31;;;;;;;;;;;;;;;-155.54;100.00;57697.75;4998428;28;20027;-81
2024/02/08 14:46:59;;;;;;;;;;;;;;;-155.54;100.00;57697.75;5016508;28;20049;-79
2024/02/08 14:49:24;;;;;;;;;;;;;;;-155.54;100.00;57697.75;4997883;28;19928;-79
2024/02/08 14:51:50;;;;;;;;;;;;;;;-155.54;100.00;57697.75;4997440;28;20387;-79
2024/02/08 14:54:25;;;;;;;;;;;;;;;-155.54;100.00;57697.75;4998723;28;19932;-80
2024/02/08 14:57:03;;;;;;;;;;;;;;;-155.54;100.00;57697.75;5015726;28;20378;-78
2024/02/08 14:59:29;;;;;;;;;;;;;;;-155.54;100.00;57697.75;4989488;28;20346;-79